createdAt,value
2023-05-12T00:00:06.833Z,11.2
2023-05-12T00:05:06.481Z,9
2023-05-12T00:10:06.196Z,11.6
2023-05-12T00:15:06.751Z,11.8
2023-05-12T00:20:06.352Z,9.4
2023-05-12T00:25:06.796Z,9
2023-05-12T00:30:06.265Z,11.9
2023-05-12T00:35:06.691Z,8.1
2023-05-12T00:40:06.167Z,8.9
2023-05-12T00:45:06.557Z,8.3
2023-05-12T00:50:06.976Z,7.1
2023-05-12T00:55:06.421Z,8.5
2023-05-12T01:00:06.901Z,5.5
2023-05-12T01:05:06.531Z,7.1
2023-05-12T01:10:07.025Z,6.4
2023-05-12T01:15:06.498Z,6.6
2023-05-12T01:20:07.079Z,5.8
2023-05-12T01:25:06.476Z,4.9
2023-05-12T01:30:07.058Z,6.4
2023-05-12T01:35:06.470Z,4
2023-05-12T01:40:06.898Z,3.1
2023-05-12T01:45:06.429Z,4.1
2023-05-12T01:50:06.945Z,5.3
2023-05-12T01:55:06.321Z,6
2023-05-12T02:00:06.873Z,4.2
2023-05-12T02:05:06.770Z,4.4
2023-05-12T02:10:06.413Z,4.8
2023-05-12T02:15:06.809Z,4.5
2023-05-12T02:20:06.261Z,5.6
2023-05-12T02:25:06.662Z,5
2023-05-12T02:30:06.139Z,3.5
2023-05-12T02:35:06.604Z,5.1
2023-05-12T02:40:06.162Z,4.5
2023-05-12T02:45:06.552Z,4.4
2023-05-12T02:50:07.038Z,4.9
2023-05-12T02:55:06.563Z,5.6
2023-05-12T03:00:06.241Z,4.5
2023-05-12T03:05:06.382Z,5.5
2023-05-12T03:10:06.934Z,3.2
2023-05-12T03:15:06.442Z,3.4
2023-05-12T03:20:06.853Z,5.1
2023-05-12T03:25:06.222Z,4.3
2023-05-12T03:30:06.839Z,4.4
2023-05-12T03:35:06.189Z,4
2023-05-12T03:40:06.703Z,3.9
2023-05-12T03:45:07.013Z,4.7
2023-05-12T03:50:06.396Z,5.3
2023-05-12T03:55:06.823Z,3.8
2023-05-12T04:00:06.276Z,5.7
2023-05-12T04:05:06.766Z,4.7
2023-05-12T04:10:06.310Z,4
2023-05-12T04:15:06.648Z,4.1
2023-05-12T04:20:06.963Z,4.2
2023-05-12T04:25:06.421Z,4.5
2023-05-12T04:30:06.833Z,4.1
2023-05-12T04:35:06.235Z,3.5
2023-05-12T04:40:06.680Z,4.6
2023-05-12T04:45:06.943Z,4.4
2023-05-12T04:50:06.479Z,5
2023-05-12T04:55:06.805Z,5
2023-05-12T05:00:06.334Z,3.5
2023-05-12T05:05:06.994Z,3.9
2023-05-12T05:10:06.412Z,4
2023-05-12T05:15:06.942Z,4.6
2023-05-12T05:20:06.452Z,5.7
2023-05-12T05:25:07.032Z,4.2
2023-05-12T05:30:06.409Z,5.3
2023-05-12T05:35:06.516Z,4.2
2023-05-12T05:40:07.014Z,4.6
2023-05-12T05:45:06.626Z,4.5
2023-05-12T05:50:07.081Z,4
2023-05-12T05:55:06.537Z,4.6
2023-05-12T06:00:07.015Z,4.1
2023-05-12T06:05:06.780Z,4.4
2023-05-12T06:10:06.222Z,7.4
2023-05-12T06:15:06.637Z,3.5
2023-05-12T06:20:06.151Z,4.1
2023-05-12T06:25:06.526Z,5.8
2023-05-12T06:30:07.001Z,4.9
2023-05-12T06:35:06.450Z,3.6
2023-05-12T06:40:07.063Z,5
2023-05-12T06:45:06.425Z,4
2023-05-12T06:50:06.909Z,4.8
2023-05-12T06:55:06.287Z,4.1
2023-05-12T07:00:06.824Z,3.6
2023-05-12T07:05:06.145Z,4.4
2023-05-12T07:10:06.805Z,4.9
2023-05-12T07:15:06.198Z,4.9
2023-05-12T07:20:06.651Z,3.5
2023-05-12T07:25:07.035Z,5
2023-05-12T07:30:06.514Z,4.5
2023-05-12T07:35:06.877Z,5.1
2023-05-12T07:40:06.354Z,4.6
2023-05-12T07:45:06.712Z,5.1
2023-05-12T07:50:06.594Z,4.5
2023-05-12T07:55:06.131Z,6.9
2023-05-12T08:00:06.778Z,4.6
2023-05-12T08:05:06.455Z,4.6
2023-05-12T08:10:06.909Z,4.9
2023-05-12T08:15:06.448Z,4.2
2023-05-12T08:20:06.844Z,5
2023-05-12T08:25:06.254Z,5.4
2023-05-12T08:30:06.726Z,5.8
2023-05-12T08:35:06.181Z,4.8
2023-05-12T08:40:06.841Z,4.7
2023-05-12T08:45:06.698Z,5.2
2023-05-12T08:50:07.003Z,5.5
2023-05-12T08:55:06.470Z,6.2
2023-05-12T09:00:06.421Z,4.5
2023-05-12T09:05:06.226Z,5.6
2023-05-12T09:10:06.726Z,6.3
2023-05-12T09:15:06.631Z,6.5
2023-05-12T09:20:06.331Z,5.5
2023-05-12T09:25:06.736Z,5.4
2023-05-12T09:30:06.119Z,7
2023-05-12T09:35:06.488Z,5.5
2023-05-12T09:40:06.682Z,5.5
2023-05-12T09:45:07.024Z,7.6
2023-05-12T09:50:06.446Z,5.5
2023-05-12T09:55:06.786Z,6.2
2023-05-12T10:05:06.691Z,6.1
2023-05-12T10:10:06.234Z,5.9
2023-05-12T10:15:06.674Z,5.1
2023-05-12T10:20:06.178Z,4.7
2023-05-12T10:25:06.747Z,4.5
2023-05-12T10:30:06.371Z,4.7
2023-05-12T10:35:06.736Z,4.6
2023-05-12T10:40:06.377Z,4
2023-05-12T10:45:06.909Z,5
2023-05-12T10:50:06.595Z,5.9
2023-05-12T10:55:07.039Z,4.5
2023-05-12T11:00:06.694Z,4.7
2023-05-12T11:05:06.986Z,5.4
2023-05-12T11:10:06.482Z,4.2
2023-05-12T11:15:06.803Z,4.5
2023-05-12T11:20:06.216Z,4.1
2023-05-12T11:25:06.662Z,3.8
2023-05-12T11:30:06.110Z,5.7
2023-05-12T11:35:06.668Z,4.8
2023-05-12T11:40:06.322Z,4.9
2023-05-12T11:45:06.523Z,4.2
2023-05-12T11:50:06.958Z,3.8
2023-05-12T11:55:06.530Z,4.2
2023-05-12T12:00:07.073Z,4.4
2023-05-12T12:05:07.065Z,3
2023-05-12T12:10:06.690Z,4
2023-05-12T12:15:06.125Z,3.8
2023-05-12T12:20:06.572Z,3.8
2023-05-12T12:25:06.923Z,3.9
2023-05-12T12:30:06.415Z,5.1
2023-05-12T12:35:06.855Z,4.8
2023-05-12T12:40:06.374Z,4.6
2023-05-12T12:45:06.933Z,4.5
2023-05-12T12:50:06.474Z,4.1
2023-05-12T12:55:06.895Z,4.3
2023-05-12T13:00:06.362Z,4.4
2023-05-12T13:05:07.010Z,4.6
2023-05-12T13:10:06.451Z,4.5
2023-05-12T13:15:06.927Z,4
2023-05-12T13:20:06.357Z,5.2
2023-05-12T13:25:06.770Z,4.2
2023-05-12T13:30:06.364Z,4.2
2023-05-12T13:35:06.730Z,3.8
2023-05-12T13:40:06.225Z,5.2
2023-05-12T13:45:06.625Z,4.8
2023-05-12T13:50:07.008Z,4
2023-05-12T13:55:06.405Z,5.1
2023-05-12T14:00:06.841Z,3.4
2023-05-12T14:05:06.426Z,3.7
2023-05-12T14:10:06.830Z,3.3
2023-05-12T14:15:06.206Z,3.4
2023-05-12T14:20:06.223Z,3.1
2023-05-12T14:25:06.555Z,3.6
2023-05-12T14:30:07.085Z,5.1
2023-05-12T14:35:06.459Z,3.9
2023-05-12T14:40:06.813Z,3.7
2023-05-12T14:45:06.206Z,4.2
2023-05-12T14:50:06.666Z,3.4
2023-05-12T14:55:06.236Z,3.7
2023-05-12T15:00:06.799Z,3.9
2023-05-12T15:05:06.178Z,4.6
2023-05-12T15:10:06.897Z,5.4
2023-05-12T15:15:06.468Z,4
2023-05-12T15:20:06.961Z,4.7
2023-05-12T15:25:06.398Z,4.9
2023-05-12T15:30:06.928Z,5.6
2023-05-12T15:35:06.378Z,6.2
2023-05-12T15:40:06.935Z,6
2023-05-12T15:45:06.334Z,7.4
2023-05-12T15:50:06.740Z,3.7
2023-05-12T15:55:06.354Z,5.1
2023-05-12T16:00:06.844Z,5.3
2023-05-12T16:05:07.059Z,5.6
2023-05-12T16:10:06.846Z,7.8
2023-05-12T16:15:06.238Z,4.8
2023-05-12T16:20:06.626Z,4.8
2023-05-12T16:25:07.068Z,6.9
2023-05-12T16:30:06.682Z,7.3
2023-05-12T16:35:07.023Z,7.9
2023-05-12T16:40:06.481Z,8.5
2023-05-12T16:45:06.892Z,7.6
2023-05-12T16:50:06.419Z,7.8
2023-05-12T16:55:06.788Z,9.3
2023-05-12T17:00:06.430Z,10.7
2023-05-12T17:05:06.163Z,8.3
2023-05-12T17:10:06.583Z,7.8
2023-05-12T17:15:07.060Z,7.7
2023-05-12T17:20:06.663Z,8.4
2023-05-12T17:25:06.188Z,9.6
2023-05-12T17:30:06.543Z,6.8
2023-05-12T17:35:06.946Z,8
2023-05-12T17:40:06.342Z,10.2
2023-05-12T17:45:06.742Z,8.3
2023-05-12T17:50:06.189Z,7.6
2023-05-12T17:55:06.676Z,7.3
2023-05-12T18:00:07.147Z,9.8
2023-05-12T18:05:06.844Z,9.5
2023-05-12T18:10:06.882Z,8.7
2023-05-12T18:15:06.252Z,8.1
2023-05-12T18:20:06.874Z,14.7
2023-05-12T18:25:06.330Z,9.9
2023-05-12T18:30:06.903Z,8
2023-05-12T18:40:06.465Z,7.1
2023-05-12T18:45:06.860Z,13.8
2023-05-12T18:50:06.421Z,12.5
2023-05-12T18:55:06.904Z,11.8
2023-05-12T19:00:06.544Z,8.7
2023-05-12T19:05:06.335Z,10.7
2023-05-12T19:10:06.879Z,8.9
2023-05-12T19:15:06.459Z,7.2
2023-05-12T19:20:06.922Z,19.2
2023-05-12T19:25:06.719Z,12.1
2023-05-12T19:30:06.267Z,12.2
2023-05-12T19:35:06.774Z,17.2
2023-05-12T19:40:06.266Z,15.8
2023-05-12T19:45:06.645Z,14.8
2023-05-12T19:50:06.158Z,16.6
2023-05-12T19:55:06.863Z,16.3
2023-05-12T20:00:06.547Z,13.7
2023-05-12T20:05:06.248Z,11.9
2023-05-12T20:10:06.781Z,9.4
2023-05-12T20:15:06.390Z,10
2023-05-12T20:20:06.980Z,6.6
2023-05-12T20:25:06.596Z,6
2023-05-12T20:30:06.275Z,7.3
2023-05-12T20:35:06.899Z,7.1
2023-05-12T20:40:06.468Z,8.1
2023-05-12T20:45:07.047Z,9.9
2023-05-12T20:50:06.624Z,8.5
2023-05-12T20:55:06.202Z,8.8
2023-05-12T21:00:06.905Z,10.4
2023-05-12T21:05:06.627Z,6.8
2023-05-12T21:10:07.033Z,6.4
2023-05-12T21:15:06.553Z,5.2
2023-05-12T21:20:07.062Z,6.7
2023-05-12T21:25:06.461Z,5.8
2023-05-12T21:30:06.915Z,5.5
2023-05-12T21:35:06.307Z,5.8
2023-05-12T21:40:06.672Z,5.1
2023-05-12T21:45:06.202Z,4.8
2023-05-12T21:50:06.847Z,6.5
2023-05-12T21:55:06.283Z,5.9
2023-05-12T22:00:06.889Z,5.2
2023-05-12T22:05:06.573Z,6.5
2023-05-12T22:10:07.054Z,5.7
2023-05-12T22:15:06.632Z,7.1
2023-05-12T22:20:07.124Z,6.1
2023-05-12T22:25:06.759Z,5
2023-05-12T22:30:06.208Z,6.1
2023-05-12T22:35:06.665Z,5.1
2023-05-12T22:40:06.218Z,6.8
2023-05-12T22:45:06.748Z,6
2023-05-12T22:50:06.282Z,7.5
2023-05-12T22:55:06.682Z,6.5
2023-05-12T23:00:06.378Z,5.6
2023-05-12T23:05:07.412Z,4.9
2023-05-12T23:10:06.746Z,6.4
2023-05-12T23:15:06.245Z,5.5
2023-05-12T23:20:06.889Z,5.4
2023-05-12T23:25:06.336Z,6.2
2023-05-12T23:30:06.771Z,5.3
2023-05-12T23:35:06.278Z,6.1
2023-05-12T23:40:06.774Z,5.2
2023-05-12T23:45:06.144Z,5.6
2023-05-12T23:50:06.729Z,5.6
2023-05-12T23:55:06.291Z,6.2
